Terminal Aerodrome Forecast
Issued by NWS Atlanta, GA

Home | Current Version | Previous Version | Text Only | Print | Product List | Glossary On
Versions: 1 2 3 4 5 6 7 8 9 10 11 12 13 14 15 16 17 18
000
FTUS42 KFFC 031956 AAA
TAFMCN
TAF AMD
KMCN 031956Z 0320/0418 19005KT P6SM OVC025
     FM040000 18004KT P6SM BKN040
     FM040800 20004KT 6SM BR OVC025
     FM041000 19004KT 6SM BR BKN009
     FM041400 22006KT P6SM BKN015
     FM041700 22009KT P6SM BKN025=

USA.gov is the U.S. government's official web portal to all federal, state and local government web resources and services.